Time;durP1;ratioP1;P1;durP2;ratioP2;P2;SDS_P1;SDS_P2;PMS_P1;PMS_P2;Temp;Humidity;BMP_temperature;BMP_pressure;BME280_temperature;BME280_humidity;BME280_pressure;Samples;Min_cycle;Max_cycle;Signal;HPM_P1;HPM_P2
2022/04/08 00:01:08;;;;;;;29.30;1.97;;;10.60;39.20;;;;;;5063126;28;20472;-60
2022/04/08 00:03:36;;;;;;;31.07;2.20;;;10.60;38.90;;;;;;5057089;28;20457;-60
2022/04/08 00:06:03;;;;;;;29.43;1.80;;;10.60;39.50;;;;;;5067878;28;20485;-60
2022/04/08 00:08:30;;;;;;;29.07;1.80;;;10.60;39.10;;;;;;5068447;28;20480;-60
2022/04/08 00:10:56;;;;;;;29.70;2.10;;;10.60;39.20;;;;;;5061939;28;20465;-60
2022/04/08 00:13:23;;;;;;;29.70;1.87;;;10.60;39.20;;;;;;5060372;28;20472;-60
2022/04/08 00:15:50;;;;;;;30.77;2.40;;;10.50;38.70;;;;;;5067252;28;20446;-59
2022/04/08 00:18:17;;;;;;;32.03;2.73;;;10.60;38.50;;;;;;5069179;28;20487;-60
2022/04/08 00:20:45;;;;;;;31.10;2.30;;;10.60;37.50;;;;;;5064719;28;20472;-60
2022/04/08 00:23:12;;;;;;;29.90;1.97;;;10.60;36.60;;;;;;5065934;28;21251;-60
2022/04/08 00:25:39;;;;;;;30.90;2.50;;;10.60;36.50;;;;;;5061356;28;20473;-59
2022/04/08 00:28:06;;;;;;;31.83;2.30;;;10.50;35.80;;;;;;5062673;28;20476;-60
2022/04/08 00:30:33;;;;;;;31.97;2.70;;;10.50;35.80;;;;;;5060505;28;20460;-60
2022/04/08 00:33:00;;;;;;;34.67;3.40;;;10.50;35.00;;;;;;5055254;28;21017;-60
2022/04/08 00:35:27;;;;;;;32.60;2.53;;;10.50;34.20;;;;;;5064816;28;20708;-60
2022/04/08 00:37:56;;;;;;;37.10;3.13;;;10.50;34.30;;;;;;5062973;28;20480;-60
2022/04/08 00:40:23;;;;;;;32.93;2.70;;;10.50;33.70;;;;;;5067239;28;20848;-60
2022/04/08 00:42:50;;;;;;;33.20;2.30;;;10.50;32.90;;;;;;5069249;28;20849;-60
2022/04/08 00:45:17;;;;;;;38.67;3.10;;;10.40;33.60;;;;;;5055827;28;20470;-60
2022/04/08 00:47:44;;;;;;;33.00;2.70;;;10.40;34.20;;;;;;5060371;28;20465;-60
2022/04/08 00:50:11;;;;;;;35.03;3.10;;;10.40;34.30;;;;;;5067791;28;20460;-60
2022/04/08 00:52:41;;;;;;;35.23;3.87;;;10.40;33.70;;;;;;5069122;28;20461;-60
2022/04/08 00:55:10;;;;;;;35.97;2.97;;;10.40;33.40;;;;;;5055726;28;20457;-60
2022/04/08 00:57:37;;;;;;;32.57;2.77;;;10.40;33.00;;;;;;5057804;28;20722;-60
2022/04/08 01:00:08;;;;;;;33.20;2.33;;;10.40;33.10;;;;;;5061193;28;20456;-60
2022/04/08 01:02:35;;;;;;;31.47;2.30;;;10.40;32.20;;;;;;5060406;28;20470;-61
2022/04/08 01:05:02;;;;;;;32.83;2.90;;;10.30;32.40;;;;;;5060465;28;20457;-60
2022/04/08 01:07:29;;;;;;;34.27;2.17;;;10.40;32.10;;;;;;5062673;28;20477;-60
2022/04/08 01:09:56;;;;;;;33.60;3.10;;;10.40;31.60;;;;;;5068036;28;20826;-60
2022/04/08 01:12:24;;;;;;;34.43;3.63;;;10.30;31.80;;;;;;5065128;28;20461;-61
2022/04/08 01:14:57;;;;;;;35.73;3.20;;;10.30;31.50;;;;;;5064308;28;20461;-60
2022/04/08 01:17:23;;;;;;;32.83;3.30;;;10.30;31.30;;;;;;5064525;28;20449;-60
2022/04/08 01:19:50;;;;;;;38.67;6.47;;;10.30;31.10;;;;;;5057393;28;20978;-59
2022/04/08 01:22:18;;;;;;;32.37;3.10;;;10.20;31.30;;;;;;5063168;28;20465;-60
2022/04/08 01:24:48;;;;;;;33.73;2.53;;;10.20;31.20;;;;;;5065975;28;20456;-60
2022/04/08 01:27:18;;;;;;;39.97;2.80;;;10.20;31.20;;;;;;5068856;28;20477;-60
2022/04/08 01:29:46;;;;;;;34.40;3.03;;;10.20;31.40;;;;;;5056569;28;20478;-61
2022/04/08 01:32:12;;;;;;;34.03;3.13;;;10.20;31.20;;;;;;5064861;28;20461;-60
2022/04/08 01:34:39;;;;;;;34.93;2.90;;;10.20;31.00;;;;;;5056167;28;20449;-60
2022/04/08 01:37:06;;;;;;;37.20;2.93;;;10.20;31.10;;;;;;5067653;28;20477;-60
2022/04/08 01:39:32;;;;;;;34.40;2.80;;;10.10;31.10;;;;;;5069183;28;21202;-60
2022/04/08 01:41:59;;;;;;;38.93;3.17;;;10.10;31.00;;;;;;5063980;28;20482;-59
2022/04/08 01:44:27;;;;;;;35.10;2.90;;;10.10;31.20;;;;;;5055864;28;20462;-60
2022/04/08 01:46:54;;;;;;;36.57;2.60;;;10.10;31.20;;;;;;5067006;28;21037;-60
2022/04/08 01:49:21;;;;;;;35.50;3.00;;;10.10;31.30;;;;;;5065328;28;20484;-60
2022/04/08 01:51:48;;;;;;;33.57;3.87;;;10.10;31.10;;;;;;5068113;28;20480;-59
2022/04/08 01:54:14;;;;;;;35.27;3.33;;;10.10;31.50;;;;;;5067473;28;20469;-61
2022/04/08 01:56:41;;;;;;;35.07;3.07;;;10.10;31.20;;;;;;5065186;28;20464;-59
2022/04/08 01:59:08;;;;;;;36.37;3.23;;;10.10;31.30;;;;;;5062833;28;20481;-61
2022/04/08 02:01:36;;;;;;;32.80;3.50;;;10.10;30.90;;;;;;5058638;28;20486;-60
2022/04/08 02:04:03;;;;;;;32.50;2.80;;;10.10;31.30;;;;;;5059343;28;20472;-60
2022/04/08 02:06:30;;;;;;;34.30;2.53;;;10.10;30.90;;;;;;5061907;28;21138;-60
2022/04/08 02:08:57;;;;;;;35.00;3.57;;;10.10;30.80;;;;;;5067032;28;20481;-60
2022/04/08 02:11:24;;;;;;;34.00;2.47;;;10.10;30.30;;;;;;5065502;28;20465;-60
2022/04/08 02:13:51;;;;;;;35.97;2.93;;;10.10;30.50;;;;;;5063040;28;20449;-60
2022/04/08 02:16:18;;;;;;;40.53;4.20;;;10.10;31.00;;;;;;5063306;28;20470;-60
2022/04/08 02:18:46;;;;;;;34.07;2.90;;;10.00;31.40;;;;;;5058528;28;20477;-60
2022/04/08 02:21:19;;;;;;;32.60;3.40;;;10.10;31.70;;;;;;5060766;28;20469;-59
2022/04/08 02:23:46;;;;;;;34.93;2.87;;;10.00;31.70;;;;;;5058918;28;20921;-60
2022/04/08 02:26:13;;;;;;;35.67;2.70;;;10.00;32.30;;;;;;5065774;28;21225;-60
2022/04/08 02:28:40;;;;;;;35.93;3.57;;;10.00;32.40;;;;;;5063402;28;20480;-60
2022/04/08 02:31:07;;;;;;;34.50;3.00;;;10.10;32.30;;;;;;5061425;28;20465;-60
2022/04/08 02:33:34;;;;;;;37.90;3.40;;;10.10;32.40;;;;;;5063010;28;20473;-60
2022/04/08 02:36:02;;;;;;;35.07;2.90;;;10.00;32.40;;;;;;5063888;28;20471;-60
2022/04/08 02:38:28;;;;;;;32.87;3.23;;;10.00;33.00;;;;;;5063203;28;20481;-60
2022/04/08 02:40:55;;;;;;;34.87;3.00;;;10.00;32.90;;;;;;5065658;28;20647;-60
2022/04/08 02:43:22;;;;;;;31.37;2.80;;;10.00;33.30;;;;;;5067336;28;20540;-60
2022/04/08 02:45:49;;;;;;;39.83;3.03;;;10.00;33.40;;;;;;5065068;28;20986;-60
2022/04/08 02:48:18;;;;;;;44.60;4.50;;;10.00;33.50;;;;;;5057923;28;20493;-60
2022/04/08 02:50:45;;;;;;;35.90;3.20;;;10.00;33.60;;;;;;5057562;28;20563;-60
2022/04/08 02:53:13;;;;;;;35.27;3.13;;;10.00;33.60;;;;;;5057441;28;21094;-59
2022/04/08 02:55:40;;;;;;;34.40;3.47;;;10.00;33.70;;;;;;5064835;28;21014;-60
2022/04/08 02:58:07;;;;;;;33.50;2.67;;;10.00;33.40;;;;;;5057697;28;20530;-60
2022/04/08 03:00:33;;;;;;;33.90;3.07;;;10.00;33.00;;;;;;5060123;28;20473;-60
2022/04/08 03:03:00;;;;;;;39.43;2.80;;;10.00;33.20;;;;;;5067198;28;21001;-60
2022/04/08 03:05:27;;;;;;;33.73;3.10;;;10.00;32.80;;;;;;5062212;28;20464;-60
2022/04/08 03:07:54;;;;;;;34.10;3.10;;;9.90;32.50;;;;;;5059338;28;20486;-60
2022/04/08 03:10:22;;;;;;;31.70;2.77;;;9.90;32.10;;;;;;5059507;28;20956;-61
2022/04/08 03:12:48;;;;;;;34.20;2.80;;;9.90;31.20;;;;;;5063990;28;20453;-60
2022/04/08 03:15:15;;;;;;;32.50;2.77;;;9.90;30.90;;;;;;5064723;28;20473;-60
2022/04/08 03:17:42;;;;;;;33.87;2.30;;;9.90;30.00;;;;;;5064116;28;20554;-59
2022/04/08 03:20:09;;;;;;;32.60;2.10;;;10.00;28.70;;;;;;5049071;28;20462;-59
2022/04/08 03:22:36;;;;;;;33.63;2.53;;;9.90;28.70;;;;;;5056397;28;20490;-60
2022/04/08 03:25:03;;;;;;;32.37;2.67;;;9.90;28.10;;;;;;5064267;28;20470;-59
2022/04/08 03:27:31;;;;;;;34.37;2.20;;;9.90;28.20;;;;;;5059208;28;21013;-59
2022/04/08 03:29:58;;;;;;;33.77;2.77;;;9.90;28.60;;;;;;5065237;28;20560;-60
2022/04/08 03:32:25;;;;;;;36.33;3.20;;;9.80;28.60;;;;;;5058268;28;21045;-60
2022/04/08 03:34:57;;;;;;;34.10;2.67;;;9.80;28.00;;;;;;5060888;28;20460;-60
2022/04/08 03:37:24;;;;;;;35.60;2.40;;;9.80;28.00;;;;;;5061143;28;20469;-60
2022/04/08 03:39:50;;;;;;;34.07;2.97;;;9.80;28.00;;;;;;5064187;28;20488;-60
2022/04/08 03:42:17;;;;;;;31.40;2.40;;;9.80;28.00;;;;;;5069141;28;20457;-60
2022/04/08 03:44:46;;;;;;;30.90;2.17;;;9.80;27.70;;;;;;5066862;28;20461;-60
2022/04/08 03:47:12;;;;;;;34.13;2.70;;;9.80;28.10;;;;;;5062757;28;20479;-60
2022/04/08 03:49:39;;;;;;;34.60;3.07;;;9.80;28.00;;;;;;5070799;28;20476;-60
2022/04/08 03:52:08;;;;;;;32.63;2.40;;;9.80;27.70;;;;;;5068538;28;20468;-59
2022/04/08 03:54:35;;;;;;;33.20;3.00;;;9.80;27.90;;;;;;5061295;28;20458;-60
2022/04/08 03:57:02;;;;;;;35.00;2.53;;;9.80;27.40;;;;;;5062593;28;20465;-60
2022/04/08 03:59:29;;;;;;;32.90;2.80;;;9.80;27.20;;;;;;5065684;28;20484;-60
2022/04/08 04:01:57;;;;;;;36.70;2.77;;;9.80;27.30;;;;;;5055526;28;20483;-59
2022/04/08 04:04:26;;;;;;;34.13;1.80;;;9.80;27.00;;;;;;5062230;28;20463;-60
2022/04/08 04:06:52;;;;;;;36.57;3.83;;;9.80;26.80;;;;;;5052907;28;20483;-60
2022/04/08 04:09:19;;;;;;;33.13;2.80;;;9.80;26.70;;;;;;5065093;28;20477;-62
2022/04/08 04:11:46;;;;;;;33.43;3.17;;;9.80;26.70;;;;;;5068137;28;20474;-61
2022/04/08 04:14:12;;;;;;;33.03;2.87;;;9.70;27.20;;;;;;5065851;28;20462;-61
2022/04/08 04:16:40;;;;;;;32.03;2.37;;;9.70;27.10;;;;;;5063568;28;20483;-61
2022/04/08 04:19:09;;;;;;;34.07;2.97;;;9.70;27.40;;;;;;5061305;28;20489;-60
2022/04/08 04:21:36;;;;;;;33.07;2.43;;;9.70;27.70;;;;;;5057444;28;20471;-62
2022/04/08 04:24:02;;;;;;;35.50;2.50;;;9.70;28.10;;;;;;5057763;28;20469;-60
2022/04/08 04:26:29;;;;;;;34.07;3.13;;;9.70;27.30;;;;;;5066565;28;20468;-60
2022/04/08 04:28:56;;;;;;;34.23;3.60;;;9.70;28.00;;;;;;5063947;28;21058;-59
2022/04/08 04:31:23;;;;;;;33.10;3.30;;;9.60;28.30;;;;;;5060096;28;20477;-61
2022/04/08 04:33:49;;;;;;;32.27;2.27;;;9.60;28.70;;;;;;5062266;28;20458;-61
2022/04/08 04:36:17;;;;;;;32.37;3.13;;;9.70;28.70;;;;;;5069727;28;20464;-62
2022/04/08 04:38:44;;;;;;;31.50;2.20;;;9.60;29.30;;;;;;5063078;28;20481;-61
2022/04/08 04:41:11;;;;;;;32.50;2.70;;;9.70;29.60;;;;;;5065676;28;20466;-61
2022/04/08 04:43:38;;;;;;;32.17;2.60;;;9.70;29.80;;;;;;5056662;28;20479;-61
2022/04/08 04:46:05;;;;;;;35.10;3.53;;;9.60;29.50;;;;;;5058189;28;20468;-60
2022/04/08 04:48:31;;;;;;;35.80;4.43;;;9.70;29.50;;;;;;5058835;28;20840;-60
2022/04/08 04:50:58;;;;;;;32.10;2.40;;;9.60;29.60;;;;;;5063042;28;20469;-61
2022/04/08 04:53:27;;;;;;;33.33;2.70;;;9.60;30.00;;;;;;5058305;28;21068;-61
2022/04/08 04:55:54;;;;;;;32.60;2.43;;;9.60;30.10;;;;;;5061566;28;20552;-61
2022/04/08 04:58:21;;;;;;;34.53;2.87;;;9.60;30.40;;;;;;5069339;28;20848;-62
2022/04/08 05:00:48;;;;;;;38.10;3.53;;;9.60;30.70;;;;;;5065543;28;20543;-61
2022/04/08 05:03:15;;;;;;;43.97;4.03;;;9.60;31.00;;;;;;5067404;28;20461;-60
2022/04/08 05:05:41;;;;;;;34.07;2.70;;;9.60;31.20;;;;;;5058647;28;20458;-60
2022/04/08 05:08:09;;;;;;;31.93;2.63;;;9.60;31.30;;;;;;5063893;28;20501;-61
2022/04/08 05:10:38;;;;;;;31.53;2.33;;;9.60;32.20;;;;;;5059212;28;20468;-59
2022/04/08 05:13:05;;;;;;;32.77;3.63;;;9.60;31.80;;;;;;5063370;28;20460;-60
2022/04/08 05:15:32;;;;;;;32.60;3.03;;;9.60;31.90;;;;;;5059583;28;20462;-60
2022/04/08 05:18:00;;;;;;;37.03;3.30;;;9.60;31.70;;;;;;5059119;28;20555;-60
2022/04/08 05:20:27;;;;;;;33.77;3.00;;;9.60;31.80;;;;;;5058132;28;20526;-59
2022/04/08 05:22:53;;;;;;;35.30;3.07;;;9.60;31.90;;;;;;5057942;28;20458;-61
2022/04/08 05:25:20;;;;;;;32.27;2.60;;;9.60;32.00;;;;;;5060087;28;20816;-59
2022/04/08 05:27:51;;;;;;;36.00;3.03;;;9.60;31.90;;;;;;5062729;28;20485;-60
2022/04/08 05:30:18;;;;;;;35.27;2.77;;;9.60;32.00;;;;;;5056292;28;20454;-59
2022/04/08 05:32:45;;;;;;;33.53;2.93;;;9.60;32.20;;;;;;5060224;28;20488;-60
2022/04/08 05:35:12;;;;;;;34.33;2.70;;;9.60;32.20;;;;;;5062382;28;20465;-58
2022/04/08 05:37:42;;;;;;;32.47;2.37;;;9.50;32.60;;;;;;5058340;28;20464;-60
2022/04/08 05:40:10;;;;;;;36.20;3.30;;;9.60;33.20;;;;;;5060511;28;20554;-60
2022/04/08 05:42:39;;;;;;;32.20;2.63;;;9.50;33.30;;;;;;5062415;28;20468;-60
2022/04/08 05:45:08;;;;;;;33.30;2.70;;;9.50;33.40;;;;;;5064267;28;21048;-59
2022/04/08 05:47:35;;;;;;;33.30;3.53;;;9.60;33.50;;;;;;5064824;28;20987;-60
2022/04/08 05:50:02;;;;;;;36.17;2.77;;;9.60;33.40;;;;;;5063784;28;20550;-59
2022/04/08 05:52:28;;;;;;;34.47;2.50;;;9.50;34.10;;;;;;5069816;28;20826;-59
2022/04/08 05:54:55;;;;;;;34.27;3.60;;;9.50;33.50;;;;;;5063575;28;20466;-59
2022/04/08 05:57:23;;;;;;;35.03;3.00;;;9.60;33.90;;;;;;5066257;28;20464;-59
2022/04/08 05:59:50;;;;;;;34.10;3.00;;;9.60;33.90;;;;;;5063393;28;20545;-59
2022/04/08 06:02:19;;;;;;;31.67;3.03;;;9.60;34.00;;;;;;5067799;28;20474;-59
2022/04/08 06:04:46;;;;;;;32.97;2.67;;;9.60;34.00;;;;;;5065436;28;20480;-64
2022/04/08 06:07:13;;;;;;;32.87;2.90;;;9.60;34.10;;;;;;5057885;28;20825;-61
2022/04/08 06:09:40;;;;;;;35.43;3.00;;;9.60;34.40;;;;;;5063233;28;20498;-61
2022/04/08 06:12:07;;;;;;;31.93;3.10;;;9.60;33.90;;;;;;5060832;28;20464;-61
2022/04/08 06:14:34;;;;;;;32.37;2.73;;;9.60;33.90;;;;;;5063185;28;20466;-61
2022/04/08 06:17:00;;;;;;;32.43;2.80;;;9.60;34.20;;;;;;5060630;28;21101;-60
2022/04/08 06:19:28;;;;;;;32.37;3.30;;;9.60;34.10;;;;;;5062249;28;20488;-62
2022/04/08 06:21:55;;;;;;;33.10;2.53;;;9.60;33.70;;;;;;5067155;28;20472;-64
2022/04/08 06:24:22;;;;;;;36.33;3.00;;;9.70;33.50;;;;;;5065028;28;20461;-62
2022/04/08 06:26:49;;;;;;;33.27;2.97;;;9.70;33.20;;;;;;5060690;28;20462;-61
2022/04/08 06:29:15;;;;;;;33.73;2.77;;;9.70;33.50;;;;;;5058821;28;20495;-62
2022/04/08 06:31:42;;;;;;;34.13;2.80;;;9.70;33.40;;;;;;5055675;28;20480;-64
2022/04/08 06:34:09;;;;;;;32.70;2.63;;;9.70;33.40;;;;;;5063301;28;20461;-61
2022/04/08 06:36:37;;;;;;;31.53;3.20;;;9.70;33.10;;;;;;5064496;28;20836;-63
2022/04/08 06:39:04;;;;;;;32.37;2.60;;;9.70;33.10;;;;;;5063848;28;20485;-62
2022/04/08 06:41:30;;;;;;;35.20;3.77;;;9.70;33.20;;;;;;5060203;28;20492;-61
2022/04/08 06:43:58;;;;;;;31.87;2.83;;;9.70;33.00;;;;;;5064484;28;20465;-63
2022/04/08 06:46:24;;;;;;;34.10;2.80;;;9.70;33.10;;;;;;5060078;28;20556;-63
2022/04/08 06:48:51;;;;;;;32.07;3.17;;;9.80;33.00;;;;;;5058629;28;20488;-64
2022/04/08 06:51:18;;;;;;;31.90;2.63;;;9.80;33.00;;;;;;5066736;28;20461;-64
2022/04/08 06:53:47;;;;;;;33.30;2.57;;;9.80;32.60;;;;;;5061664;28;21027;-61
2022/04/08 06:56:14;;;;;;;32.90;2.50;;;9.90;32.80;;;;;;5054452;28;20464;-62
2022/04/08 06:58:41;;;;;;;31.00;2.83;;;9.90;32.80;;;;;;5061615;28;20478;-61
2022/04/08 07:01:07;;;;;;;32.80;2.73;;;10.00;32.70;;;;;;5062667;28;21009;-59
2022/04/08 07:03:35;;;;;;;30.80;2.60;;;10.10;32.40;;;;;;5050849;28;20463;-61
2022/04/08 07:06:03;;;;;;;31.17;2.20;;;10.10;32.10;;;;;;5062266;28;20458;-61
2022/04/08 07:08:30;;;;;;;32.90;2.40;;;10.20;32.20;;;;;;5062872;28;20485;-63
2022/04/08 07:10:58;;;;;;;31.10;2.87;;;10.30;32.40;;;;;;5066467;28;20461;-64
2022/04/08 07:13:25;;;;;;;31.37;2.57;;;10.30;32.10;;;;;;5067236;28;20481;-62
2022/04/08 07:15:51;;;;;;;30.77;2.80;;;10.30;32.10;;;;;;5067109;28;20861;-64
2022/04/08 07:18:19;;;;;;;33.10;3.07;;;10.30;31.80;;;;;;5061602;28;20487;-62
2022/04/08 07:20:45;;;;;;;32.87;2.67;;;10.40;31.80;;;;;;5062747;28;20587;-64
2022/04/08 07:23:12;;;;;;;30.97;2.50;;;10.40;31.70;;;;;;5067660;28;20629;-62
2022/04/08 07:25:39;;;;;;;31.30;2.70;;;10.40;31.60;;;;;;5067802;28;20836;-62
2022/04/08 07:28:07;;;;;;;32.27;2.57;;;10.50;31.80;;;;;;5054109;28;20480;-60
2022/04/08 07:30:34;;;;;;;32.50;2.47;;;10.50;31.60;;;;;;5061918;28;20956;-61
2022/04/08 07:33:03;;;;;;;35.37;3.23;;;10.50;31.90;;;;;;5059282;28;20473;-62
2022/04/08 07:35:30;;;;;;;33.40;2.97;;;10.50;32.00;;;;;;5053068;28;20493;-61
2022/04/08 07:37:58;;;;;;;33.73;3.60;;;10.60;31.80;;;;;;5060162;28;20485;-58
2022/04/08 07:40:26;;;;;;;32.10;2.70;;;10.60;31.90;;;;;;5055544;28;20476;-62
2022/04/08 07:42:53;;;;;;;33.23;3.10;;;10.70;32.00;;;;;;5059228;28;20506;-62
2022/04/08 07:45:27;;;;;;;31.33;2.33;;;10.70;31.40;;;;;;5065652;28;20963;-60
2022/04/08 07:47:55;;;;;;;32.00;2.73;;;10.70;31.50;;;;;;5065454;28;20493;-61
2022/04/08 07:50:22;;;;;;;34.07;2.57;;;10.60;31.70;;;;;;5060646;28;20454;-60
2022/04/08 07:52:49;;;;;;;32.20;3.27;;;10.60;31.80;;;;;;5065013;28;20453;-61
2022/04/08 07:55:20;;;;;;;32.63;2.60;;;10.70;32.10;;;;;;5062562;28;20966;-60
2022/04/08 07:57:47;;;;;;;30.63;2.30;;;10.70;31.80;;;;;;5063050;28;20500;-64
2022/04/08 08:00:16;;;;;;;31.40;2.67;;;10.70;31.60;;;;;;5056970;28;20473;-61
2022/04/08 08:02:45;;;;;;;30.30;2.37;;;10.80;31.60;;;;;;5057371;28;20490;-60
2022/04/08 08:05:12;;;;;;;29.97;2.20;;;10.80;31.30;;;;;;5059068;28;20461;-60
2022/04/08 08:07:47;;;;;;;30.33;2.00;;;10.90;30.90;;;;;;5065772;28;20446;-60
2022/04/08 08:10:18;;;;;;;33.57;2.90;;;10.90;31.00;;;;;;5057192;28;20464;-60
2022/04/08 08:12:45;;;;;;;29.83;2.30;;;10.90;30.80;;;;;;5055600;28;20464;-61
2022/04/08 08:15:12;;;;;;;32.70;3.20;;;10.90;30.80;;;;;;5063598;28;20547;-58
2022/04/08 08:17:40;;;;;;;31.67;2.30;;;11.00;30.70;;;;;;5067842;28;20461;-61
2022/04/08 08:20:09;;;;;;;31.43;2.03;;;11.00;30.70;;;;;;5065127;28;20453;-64
2022/04/08 08:22:37;;;;;;;31.30;2.37;;;11.00;30.50;;;;;;5060989;28;20465;-60
2022/04/08 08:25:06;;;;;;;31.00;2.10;;;11.00;30.60;;;;;;5068410;28;20847;-60
2022/04/08 08:27:38;;;;;;;29.67;2.10;;;11.10;30.90;;;;;;5066573;28;20534;-62
2022/04/08 08:30:06;;;;;;;31.47;2.40;;;11.10;31.10;;;;;;5066411;28;20481;-61
2022/04/08 08:32:33;;;;;;;31.70;2.60;;;11.20;31.10;;;;;;5062669;28;20484;-62
2022/04/08 08:34:59;;;;;;;30.30;2.20;;;11.20;31.10;;;;;;5068371;22;20503;-70
2022/04/08 08:37:28;;;;;;;32.70;2.30;;;11.20;31.00;;;;;;5030645;28;20827;-71
2022/04/08 08:39:56;;;;;;;29.60;2.10;;;11.20;30.90;;;;;;5031069;28;20455;-70
2022/04/08 08:42:24;;;;;;;30.50;2.10;;;11.30;30.40;;;;;;5029273;28;20521;-70
2022/04/08 08:44:51;;;;;;;33.87;2.50;;;11.30;30.50;;;;;;5030920;28;20957;-71
2022/04/08 08:47:19;;;;;;;30.63;2.70;;;11.30;30.50;;;;;;5030601;28;20863;-71
2022/04/08 08:49:49;;;;;;;29.60;2.00;;;11.40;30.50;;;;;;5030558;28;20493;-70
2022/04/08 08:52:17;;;;;;;30.63;1.80;;;11.40;30.40;;;;;;5029122;28;20521;-71
2022/04/08 08:54:46;;;;;;;29.00;2.10;;;11.40;30.70;;;;;;5030425;28;20455;-72
2022/04/08 08:57:14;;;;;;;29.23;1.87;;;11.50;30.40;;;;;;5030864;28;20825;-71
2022/04/08 08:59:42;;;;;;;28.93;2.03;;;11.60;30.30;;;;;;5030778;28;20458;-71
2022/04/08 09:02:09;;;;;;;28.87;2.00;;;11.70;30.10;;;;;;5029438;28;20482;-71
2022/04/08 09:04:40;;;;;;;28.57;1.70;;;11.70;30.00;;;;;;5029364;28;20963;-72
2022/04/08 09:07:09;;;;;;;28.87;1.50;;;11.70;30.10;;;;;;5030711;28;20439;-70
2022/04/08 09:09:36;;;;;;;28.93;1.80;;;11.90;30.10;;;;;;5030693;28;20490;-73
2022/04/08 09:12:12;;;;;;;28.70;2.07;;;12.00;29.80;;;;;;5029951;28;21020;-71
2022/04/08 09:14:40;;;;;;;32.03;2.10;;;12.10;29.60;;;;;;5028496;28;20463;-72
2022/04/08 09:17:06;;;;;;;29.40;2.20;;;12.10;29.30;;;;;;5029619;28;20469;-71
2022/04/08 09:19:34;;;;;;;29.80;2.20;;;12.20;29.00;;;;;;5029636;28;20455;-72
2022/04/08 09:22:01;;;;;;;30.87;2.40;;;12.20;29.00;;;;;;5029845;28;20537;-72
2022/04/08 09:24:28;;;;;;;30.00;2.43;;;12.30;28.70;;;;;;5028548;28;20516;-72
2022/04/08 09:26:56;;;;;;;29.83;3.43;;;12.30;28.40;;;;;;5030264;28;20533;-71
2022/04/08 09:29:25;;;;;;;30.07;2.20;;;12.40;28.30;;;;;;5029869;28;20507;-72
2022/04/08 09:31:53;;;;;;;29.93;2.70;;;12.40;28.10;;;;;;5028742;28;21029;-71
2022/04/08 09:34:22;;;;;;;29.40;2.37;;;12.40;27.70;;;;;;5027392;28;20954;-70
2022/04/08 09:36:49;;;;;;;30.37;2.40;;;12.40;27.50;;;;;;5028794;28;21008;-71
2022/04/08 09:39:16;;;;;;;29.20;3.07;;;12.40;27.50;;;;;;5029325;28;20455;-70
2022/04/08 09:41:44;;;;;;;29.17;3.13;;;12.30;27.70;;;;;;5029356;28;20458;-71
2022/04/08 09:44:13;;;;;;;29.70;2.57;;;12.30;28.10;;;;;;5027702;28;20579;-72
2022/04/08 09:46:41;;;;;;;30.43;2.73;;;12.20;27.70;;;;;;5029194;28;20990;-70
2022/04/08 09:49:09;;;;;;;30.70;2.60;;;12.10;27.70;;;;;;5028405;28;20479;-70
2022/04/08 09:51:37;;;;;;;29.33;2.80;;;12.10;28.10;;;;;;5028837;28;20467;-70
2022/04/08 09:54:07;;;;;;;48.10;11.33;;;12.00;28.30;;;;;;5027974;28;20538;-70
2022/04/08 09:56:36;;;;;;;31.10;3.40;;;12.00;28.80;;;;;;5044538;23;20581;-64
2022/04/08 09:59:05;;;;;;;29.80;3.20;;;12.00;30.30;;;;;;5027226;28;20533;-67
2022/04/08 10:01:32;;;;;;;30.17;3.40;;;11.90;29.90;;;;;;5019409;28;20511;-59
2022/04/08 10:04:02;;;;;;;29.80;3.27;;;11.80;30.50;;;;;;5023067;28;20462;-61
2022/04/08 10:06:29;;;;;;;29.60;2.90;;;11.70;30.90;;;;;;5000497;28;20461;-58
2022/04/08 10:08:56;;;;;;;30.53;2.83;;;11.60;31.30;;;;;;5006807;28;20491;-58
2022/04/08 10:11:26;;;;;;;29.07;2.73;;;11.50;31.90;;;;;;5004753;28;20479;-59
2022/04/08 10:14:05;;;;;;;31.53;3.57;;;11.50;32.70;;;;;;5007276;28;20456;-59
2022/04/08 10:16:32;;;;;;;31.83;4.40;;;11.40;33.00;;;;;;5023977;22;20579;-58
2022/04/08 10:19:04;;;;;;;30.40;3.00;;;11.30;33.00;;;;;;5017152;28;21115;-58
2022/04/08 10:21:36;;;;;;;32.37;3.13;;;11.30;33.50;;;;;;5026436;28;20486;-57
2022/04/08 10:24:08;;;;;;;32.93;3.47;;;11.20;34.00;;;;;;5029066;28;20467;-57
2022/04/08 10:26:37;;;;;;;31.30;3.10;;;11.00;35.00;;;;;;5026384;28;20483;-58
2022/04/08 10:29:11;;;;;;;31.33;3.53;;;11.00;35.70;;;;;;5023403;28;20516;-63
2022/04/08 10:31:38;;;;;;;33.60;3.60;;;11.10;36.80;;;;;;5025066;28;20603;-59
2022/04/08 10:34:07;;;;;;;30.47;4.67;;;11.00;36.80;;;;;;5024943;28;20463;-59
2022/04/08 10:36:36;;;;;;;31.70;3.90;;;11.10;37.20;;;;;;5017188;28;20490;-57
2022/04/08 10:39:13;;;;;;;34.40;4.47;;;11.10;37.90;;;;;;5019296;28;20462;-55
2022/04/08 10:41:51;;;;;;;29.30;3.97;;;11.10;37.80;;;;;;5024625;28;20466;-52
2022/04/08 10:44:30;;;;;;;31.57;4.10;;;11.20;38.10;;;;;;5024029;28;20468;-55
2022/04/08 10:46:59;;;;;;;30.90;4.30;;;11.20;38.30;;;;;;5025584;28;20486;-56
2022/04/08 10:49:27;;;;;;;30.37;3.73;;;11.10;38.80;;;;;;5023285;28;20490;-51
2022/04/08 10:51:54;;;;;;;31.97;4.23;;;11.10;39.00;;;;;;5024977;28;20467;-54
2022/04/08 10:54:21;;;;;;;31.03;3.73;;;11.10;39.20;;;;;;5022164;28;20463;-53
2022/04/08 10:56:57;;;;;;;31.53;5.17;;;11.10;39.30;;;;;;5023118;28;20483;-54
2022/04/08 10:59:27;;;;;;;31.40;4.40;;;11.00;39.80;;;;;;5023572;28;20464;-51
2022/04/08 11:01:59;;;;;;;31.30;3.80;;;11.00;40.30;;;;;;5028943;28;20471;-54
2022/04/08 11:04:28;;;;;;;30.00;3.40;;;11.00;40.70;;;;;;5024590;28;21158;-56
2022/04/08 11:06:55;;;;;;;31.00;3.50;;;11.00;40.60;;;;;;5031116;28;20512;-58
2022/04/08 11:09:23;;;;;;;30.97;3.47;;;11.10;40.60;;;;;;5026768;28;20493;-58
2022/04/08 11:11:53;;;;;;;31.80;4.70;;;11.10;41.00;;;;;;5017782;28;20473;-56
2022/04/08 11:14:20;;;;;;;30.10;4.40;;;11.20;41.00;;;;;;5023471;28;20479;-61
2022/04/08 11:16:49;;;;;;;31.90;3.37;;;11.20;41.30;;;;;;5032521;28;20879;-56
2022/04/08 11:19:16;;;;;;;34.07;3.73;;;11.30;41.30;;;;;;5028434;28;20532;-56
2022/04/08 11:21:45;;;;;;;29.23;3.07;;;11.30;41.00;;;;;;5022584;28;20466;-56
2022/04/08 11:24:13;;;;;;;29.93;2.93;;;11.40;40.90;;;;;;5021225;28;20945;-58
2022/04/08 11:26:44;;;;;;;30.47;4.20;;;11.50;41.20;;;;;;5016918;28;20494;-56
2022/04/08 11:29:13;;;;;;;29.70;2.83;;;11.60;40.90;;;;;;5020510;28;20823;-56
2022/04/08 11:31:43;;;;;;;29.47;3.07;;;11.60;40.90;;;;;;5018921;28;20518;-58
2022/04/08 11:34:10;;;;;;;28.97;3.73;;;11.70;41.10;;;;;;5019962;28;20501;-55
2022/04/08 11:36:38;;;;;;;30.50;3.83;;;11.70;40.70;;;;;;5023959;28;20486;-56
2022/04/08 11:39:07;;;;;;;28.60;3.07;;;11.80;40.70;;;;;;5023821;28;20840;-59
2022/04/08 11:41:34;;;;;;;29.13;3.10;;;11.90;40.50;;;;;;5018316;28;20466;-57
2022/04/08 11:44:02;;;;;;;29.50;3.00;;;12.00;40.50;;;;;;5018800;28;20472;-52
2022/04/08 11:46:28;;;;;;;28.63;2.63;;;12.00;40.60;;;;;;5020143;28;20574;-55
2022/04/08 11:48:55;;;;;;;28.63;3.20;;;12.10;40.60;;;;;;5021092;28;20468;-56
2022/04/08 11:51:23;;;;;;;28.30;2.97;;;12.20;40.60;;;;;;5025055;28;21054;-54
2022/04/08 11:53:50;;;;;;;28.57;3.00;;;12.20;40.50;;;;;;5023671;28;20471;-59
2022/04/08 11:56:22;;;;;;;28.00;2.63;;;12.30;40.50;;;;;;5019383;28;20468;-58
2022/04/08 11:58:57;;;;;;;28.00;3.23;;;12.40;41.10;;;;;;5022175;28;20463;-59
2022/04/08 12:01:24;;;;;;;27.70;2.73;;;12.50;41.10;;;;;;5022258;28;20485;-57
2022/04/08 12:03:52;;;;;;;28.87;4.47;;;12.60;40.70;;;;;;5027027;28;20470;-58
2022/04/08 12:06:19;;;;;;;30.30;3.40;;;12.70;40.80;;;;;;5019308;28;20544;-59
2022/04/08 12:08:47;;;;;;;27.80;3.07;;;12.80;40.90;;;;;;5024779;28;20467;-57
2022/04/08 12:11:14;;;;;;;28.13;3.30;;;12.90;40.80;;;;;;5022849;28;20855;-57
2022/04/08 12:13:43;;;;;;;27.40;2.60;;;13.10;40.30;;;;;;5027128;28;20461;-57
2022/04/08 12:16:11;;;;;;;27.90;2.37;;;13.10;40.30;;;;;;5023986;28;20459;-60
2022/04/08 12:18:48;;;;;;;28.03;2.50;;;13.20;39.30;;;;;;5033649;28;20461;-58
2022/04/08 12:21:21;;;;;;;28.10;2.10;;;13.10;39.40;;;;;;5018066;28;20469;-59
2022/04/08 12:23:49;;;;;;;27.33;2.13;;;13.10;39.50;;;;;;5028552;28;20463;-58
2022/04/08 12:26:17;;;;;;;27.57;2.43;;;13.10;39.30;;;;;;5032572;28;20520;-57
2022/04/08 12:28:46;;;;;;;27.40;2.17;;;13.20;39.20;;;;;;5022478;28;20466;-57
2022/04/08 12:31:14;;;;;;;27.90;2.83;;;13.20;39.20;;;;;;5035065;28;20479;-59
2022/04/08 12:33:41;;;;;;;28.77;2.13;;;13.20;39.20;;;;;;5027848;28;20471;-60
2022/04/08 12:36:10;;;;;;;27.83;1.97;;;13.30;39.20;;;;;;5030774;28;20477;-60
2022/04/08 12:38:38;;;;;;;27.63;2.17;;;13.30;38.80;;;;;;5031000;28;20462;-60
2022/04/08 12:41:05;;;;;;;27.60;1.93;;;13.40;38.20;;;;;;5028606;28;20465;-58
2022/04/08 12:43:33;;;;;;;27.40;2.20;;;13.50;38.50;;;;;;5028360;28;20467;-58